createdAt,value
2022-11-05T00:00:57.108Z,8.70
2022-11-05T00:03:43.374Z,9.80
2022-11-05T00:06:31.426Z,8.60
2022-11-05T00:09:17.685Z,8.60
2022-11-05T00:12:03.830Z,8.60
2022-11-05T00:14:55.692Z,8.60
2022-11-05T00:17:26.969Z,8.60
2022-11-05T00:19:54.920Z,8.50
2022-11-05T00:22:41.269Z,8.50
2022-11-05T00:25:16.847Z,8.50
2022-11-05T00:27:52.943Z,8.50
2022-11-05T00:30:24.557Z,8.50
2022-11-05T00:32:52.907Z,8.50
2022-11-05T00:35:22.698Z,8.50
2022-11-05T00:37:52.718Z,8.40
2022-11-05T00:40:20.301Z,8.50
2022-11-05T00:43:06.161Z,8.40
2022-11-05T00:45:33.769Z,8.50
2022-11-05T00:48:19.907Z,8.40
2022-11-05T00:50:47.394Z,8.50
2022-11-05T00:53:14.889Z,8.50
2022-11-05T00:55:44.799Z,8.50
2022-11-05T00:58:20.911Z,8.50
2022-11-05T01:00:56.615Z,8.50
2022-11-05T01:03:29.326Z,8.50
2022-11-05T01:06:07.502Z,8.50
2022-11-05T01:08:35.156Z,8.50
2022-11-05T01:11:12.180Z,8.60
2022-11-05T01:13:40.579Z,8.60
2022-11-05T01:16:09.896Z,8.60
2022-11-05T01:18:38.918Z,8.60
2022-11-05T01:21:15.787Z,8.60
2022-11-05T01:23:43.552Z,8.60
2022-11-05T01:26:11.294Z,8.60
2022-11-05T01:28:39.138Z,8.60
2022-11-05T01:31:06.677Z,8.60
2022-11-05T01:33:34.067Z,8.70
2022-11-05T01:36:01.559Z,8.70
2022-11-05T01:38:29.078Z,8.70
2022-11-05T01:40:56.579Z,8.70
2022-11-05T01:43:24.348Z,8.80
2022-11-05T01:45:55.991Z,8.70
2022-11-05T01:48:30.819Z,8.70
2022-11-05T01:51:03.093Z,8.70
2022-11-05T01:53:34.476Z,8.80
2022-11-05T01:56:07.994Z,8.80
2022-11-05T01:58:55.172Z,8.80
2022-11-05T02:01:23.121Z,8.80
2022-11-05T02:03:54.457Z,8.80
2022-11-05T02:06:22.134Z,8.80
2022-11-05T02:09:08.214Z,8.80
2022-11-05T02:11:35.732Z,8.80
2022-11-05T02:14:03.325Z,8.80
2022-11-05T02:16:36.828Z,8.80
2022-11-05T02:19:13.601Z,8.90
2022-11-05T02:21:53.834Z,8.90
2022-11-05T02:24:27.188Z,8.90
2022-11-05T02:27:18.847Z,8.90
2022-11-05T02:30:04.242Z,8.90
2022-11-05T02:32:55.566Z,8.90
2022-11-05T02:35:47.239Z,9.00
2022-11-05T02:38:43.729Z,9.00
2022-11-05T02:41:23.067Z,9.00
2022-11-05T02:44:05.875Z,9.00
2022-11-05T02:47:03.389Z,9.00
2022-11-05T02:49:52.387Z,9.10
2022-11-05T02:52:51.622Z,9.00
2022-11-05T02:55:40.142Z,9.10
2022-11-05T02:58:08.559Z,9.10
2022-11-05T03:00:41.168Z,9.10
2022-11-05T03:03:31.089Z,9.10
2022-11-05T03:06:12.266Z,9.10
2022-11-05T03:08:48.698Z,9.10
2022-11-05T03:11:19.966Z,9.10
2022-11-05T03:13:58.213Z,9.00
2022-11-05T03:16:49.708Z,9.00
2022-11-05T03:19:50.296Z,9.10
2022-11-05T03:22:30.513Z,9.10
2022-11-05T03:25:05.002Z,9.10
2022-11-05T03:27:37.548Z,9.00
2022-11-05T03:30:11.266Z,9.00
2022-11-05T03:32:51.042Z,9.00
2022-11-05T03:35:26.893Z,9.10
2022-11-05T03:38:02.905Z,9.00
2022-11-05T03:40:34.950Z,9.00
2022-11-05T03:43:06.594Z,9.00
2022-11-05T03:46:06.109Z,9.10
2022-11-05T03:48:36.309Z,9.00
2022-11-05T03:51:29.397Z,9.00
2022-11-05T03:53:59.751Z,9.10
2022-11-05T03:56:44.540Z,9.00
2022-11-05T03:59:12.624Z,9.10
2022-11-05T04:01:42.557Z,9.00
2022-11-05T04:04:10.336Z,9.10
2022-11-05T04:06:56.198Z,9.10
2022-11-05T04:09:42.515Z,9.10
2022-11-05T04:12:31.665Z,9.40
2022-11-05T04:14:59.142Z,9.10
2022-11-05T04:17:26.530Z,9.10
2022-11-05T04:20:12.832Z,9.10
2022-11-05T04:22:58.912Z,9.10
2022-11-05T04:25:26.372Z,9.10
2022-11-05T04:27:59.421Z,9.10
2022-11-05T04:30:27.307Z,9.20
2022-11-05T04:33:11.130Z,9.20
2022-11-05T04:35:44.859Z,9.20
2022-11-05T04:38:16.293Z,9.20
2022-11-05T04:40:44.944Z,9.20
2022-11-05T04:43:15.341Z,9.20
2022-11-05T04:45:43.842Z,9.30
2022-11-05T04:48:11.794Z,9.20
2022-11-05T04:50:39.628Z,9.30
2022-11-05T04:53:07.107Z,9.30
2022-11-05T04:55:34.557Z,9.30
2022-11-05T04:58:01.969Z,9.30
2022-11-05T05:00:29.526Z,9.30
2022-11-05T05:02:57.035Z,9.30
2022-11-05T05:05:24.519Z,9.30
2022-11-05T05:07:52.028Z,9.40
2022-11-05T05:10:19.585Z,9.40
2022-11-05T05:12:48.449Z,9.40
2022-11-05T05:15:15.929Z,9.40
2022-11-05T05:17:43.433Z,9.40
2022-11-05T05:20:29.632Z,9.40
2022-11-05T05:22:57.075Z,9.50
2022-11-05T05:25:24.524Z,9.50
2022-11-05T05:27:51.999Z,9.50
2022-11-05T05:30:19.878Z,9.50
2022-11-05T05:32:47.272Z,9.50
2022-11-05T05:35:15.492Z,9.50
2022-11-05T05:37:43.247Z,9.50
2022-11-05T05:40:11.313Z,9.50
2022-11-05T05:42:42.897Z,9.60
2022-11-05T05:45:12.347Z,9.60
2022-11-05T05:47:39.805Z,9.60
2022-11-05T05:50:07.471Z,9.60
2022-11-05T05:52:34.948Z,9.60
2022-11-05T05:55:02.472Z,9.60
2022-11-05T05:57:30.033Z,9.60
2022-11-05T05:59:57.514Z,9.70
2022-11-05T06:02:25.010Z,9.70
2022-11-05T06:04:52.471Z,9.70
2022-11-05T06:07:19.934Z,9.70
2022-11-05T06:09:47.419Z,9.80
2022-11-05T06:12:14.945Z,9.80
2022-11-05T06:14:42.453Z,9.80
2022-11-05T06:17:10.014Z,9.80
2022-11-05T06:19:37.520Z,9.80
2022-11-05T06:22:04.957Z,9.80
2022-11-05T06:24:32.389Z,9.90
2022-11-05T06:26:59.952Z,9.90
2022-11-05T06:29:27.407Z,9.90
2022-11-05T06:31:54.796Z,9.90
2022-11-05T06:34:22.353Z,10.00
2022-11-05T06:36:49.869Z,10.00
2022-11-05T06:39:17.280Z,10.00
2022-11-05T06:42:11.998Z,10.10
2022-11-05T06:44:32.733Z,10.10
2022-11-05T06:47:00.698Z,10.10
2022-11-05T06:49:28.347Z,10.20
2022-11-05T06:51:56.087Z,10.20
2022-11-05T06:54:23.596Z,10.20
2022-11-05T06:56:51.165Z,10.30
2022-11-05T06:59:18.789Z,10.30
2022-11-05T07:01:46.411Z,10.40
2022-11-05T07:04:14.125Z,10.40
2022-11-05T07:06:41.740Z,10.40
2022-11-05T07:09:09.380Z,10.40
2022-11-05T07:11:37.081Z,10.50
2022-11-05T07:14:04.597Z,10.40
2022-11-05T07:16:32.060Z,10.50
2022-11-05T07:18:59.601Z,10.50
2022-11-05T07:21:28.045Z,10.50
2022-11-05T07:23:55.483Z,10.60
2022-11-05T07:26:23.176Z,10.60
2022-11-05T07:28:50.708Z,10.60
2022-11-05T07:31:18.363Z,10.60
2022-11-05T07:33:45.821Z,10.70
2022-11-05T07:36:14.836Z,10.70
2022-11-05T07:38:42.268Z,10.70
2022-11-05T07:41:09.883Z,10.70
2022-11-05T07:43:37.394Z,10.70
2022-11-05T07:46:06.684Z,10.70
2022-11-05T07:48:37.377Z,10.70
2022-11-05T07:51:05.298Z,10.70
2022-11-05T07:53:32.707Z,10.70
2022-11-05T07:56:00.105Z,10.70
2022-11-05T07:58:27.803Z,10.70
2022-11-05T08:00:57.476Z,10.70
2022-11-05T08:03:25.242Z,10.70
2022-11-05T08:05:52.780Z,10.80
2022-11-05T08:08:20.517Z,10.80
2022-11-05T08:10:48.019Z,10.80
2022-11-05T08:13:16.118Z,10.80
2022-11-05T08:15:44.364Z,10.80
2022-11-05T08:18:14.867Z,10.80
2022-11-05T08:20:43.804Z,10.90
2022-11-05T08:23:12.255Z,10.80
2022-11-05T08:25:40.695Z,10.80
2022-11-05T08:28:11.662Z,10.90
2022-11-05T08:30:39.051Z,10.90
2022-11-05T08:33:12.394Z,10.90
2022-11-05T08:35:40.649Z,10.90
2022-11-05T08:38:10.549Z,10.90
2022-11-05T08:40:38.170Z,10.90
2022-11-05T08:43:07.988Z,10.90
2022-11-05T08:45:38.465Z,11.00
2022-11-05T08:48:09.447Z,10.30
2022-11-05T08:50:38.099Z,11.00
2022-11-05T08:53:06.992Z,11.00
2022-11-05T08:55:34.977Z,11.10
2022-11-05T08:58:05.537Z,11.10
2022-11-05T09:00:35.408Z,11.10
2022-11-05T09:03:05.374Z,11.10
2022-11-05T09:05:43.064Z,11.10
2022-11-05T09:08:12.795Z,11.10
2022-11-05T09:10:41.602Z,11.20
2022-11-05T09:13:14.701Z,11.20
2022-11-05T09:15:44.630Z,11.20
2022-11-05T09:18:14.040Z,11.30
2022-11-05T09:20:42.063Z,11.30
2022-11-05T09:23:11.268Z,11.30
2022-11-05T09:25:39.297Z,11.40
2022-11-05T09:28:07.935Z,11.40
2022-11-05T09:30:35.447Z,11.40
2022-11-05T09:33:02.858Z,11.50
2022-11-05T09:35:30.392Z,11.50
2022-11-05T09:38:00.982Z,11.50
2022-11-05T09:40:31.146Z,11.60
2022-11-05T09:42:59.140Z,11.60
2022-11-05T09:45:29.830Z,11.70
2022-11-05T09:48:02.985Z,11.70
2022-11-05T09:50:38.023Z,11.80
2022-11-05T09:53:06.439Z,11.90
2022-11-05T09:55:38.599Z,11.80
2022-11-05T09:58:28.849Z,11.80
2022-11-05T10:00:57.738Z,12.00
2022-11-05T10:03:28.696Z,12.00
2022-11-05T10:06:03.485Z,12.00
2022-11-05T10:08:39.147Z,12.10
2022-11-05T10:11:16.936Z,12.20
2022-11-05T10:13:56.341Z,12.20
2022-11-05T10:16:29.738Z,12.20
2022-11-05T10:19:02.952Z,12.30
2022-11-05T10:21:59.454Z,12.30
2022-11-05T10:24:20.848Z,12.30
2022-11-05T10:26:52.710Z,12.40
2022-11-05T10:29:32.647Z,12.40
2022-11-05T10:32:05.480Z,12.40
2022-11-05T10:34:37.145Z,12.40
2022-11-05T10:37:05.052Z,12.40
2022-11-05T10:39:34.420Z,12.50
2022-11-05T10:42:19.512Z,12.40
2022-11-05T10:44:52.866Z,12.50
2022-11-05T10:47:54.315Z,12.50
2022-11-05T10:50:29.741Z,12.50
2022-11-05T10:53:05.353Z,12.40
2022-11-05T10:55:36.549Z,12.40
2022-11-05T10:58:18.116Z,12.40
2022-11-05T11:00:49.915Z,12.60
2022-11-05T11:03:46.747Z,12.50
2022-11-05T11:06:34.613Z,12.60
2022-11-05T11:09:08.275Z,12.60
2022-11-05T11:11:39.053Z,12.70
2022-11-05T11:14:12.423Z,12.70
2022-11-05T11:16:57.268Z,12.80
2022-11-05T11:19:28.670Z,12.80
2022-11-05T11:22:05.149Z,12.90
2022-11-05T11:24:51.153Z,13.00
2022-11-05T11:27:29.075Z,13.10
2022-11-05T11:30:01.758Z,13.00
2022-11-05T11:32:36.384Z,13.20
2022-11-05T11:35:06.194Z,13.30
2022-11-05T11:37:37.224Z,13.30
2022-11-05T11:40:13.029Z,13.40
2022-11-05T11:42:41.648Z,13.40
2022-11-05T11:45:19.423Z,13.40
2022-11-05T11:47:49.938Z,13.50
2022-11-05T11:50:45.358Z,13.50
2022-11-05T11:53:21.813Z,13.60
2022-11-05T11:55:55.349Z,13.60
2022-11-05T11:58:37.278Z,13.60
2022-11-05T12:01:36.504Z,13.70
2022-11-05T12:04:54.213Z,13.70
2022-11-05T12:07:30.657Z,13.70
2022-11-05T12:10:04.376Z,13.70
2022-11-05T12:13:11.401Z,13.70
2022-11-05T12:15:41.901Z,13.80
2022-11-05T12:18:30.739Z,13.80
2022-11-05T12:21:51.353Z,13.80
2022-11-05T12:24:23.326Z,13.80
2022-11-05T12:26:59.424Z,13.80
2022-11-05T12:30:08.076Z,13.80
2022-11-05T12:32:55.296Z,13.90
2022-11-05T12:35:47.386Z,13.90
2022-11-05T12:38:43.430Z,13.90
2022-11-05T12:41:35.542Z,13.90
2022-11-05T12:44:34.837Z,13.90
2022-11-05T12:47:43.075Z,14.00
2022-11-05T12:50:18.736Z,13.90
2022-11-05T12:53:25.845Z,13.90
2022-11-05T12:55:54.576Z,13.90
2022-11-05T12:58:37.062Z,13.90
2022-11-05T13:01:12.962Z,13.90
2022-11-05T13:03:50.100Z,13.90
2022-11-05T13:06:35.869Z,13.90
2022-11-05T13:09:07.666Z,13.90
2022-11-05T13:11:40.638Z,13.90
2022-11-05T13:14:14.243Z,14.00
2022-11-05T13:16:50.214Z,13.90
2022-11-05T13:19:57.161Z,13.90
2022-11-05T13:22:39.668Z,13.90
2022-11-05T13:25:18.751Z,13.90
2022-11-05T13:27:51.955Z,13.90
2022-11-05T13:30:26.025Z,13.90
2022-11-05T13:33:11.363Z,13.90
2022-11-05T13:35:45.732Z,13.90
2022-11-05T13:38:57.859Z,13.90
2022-11-05T13:41:44.237Z,13.90
2022-11-05T13:44:39.660Z,13.90
2022-11-05T13:47:29.132Z,13.90
2022-11-05T13:49:56.538Z,13.90
2022-11-05T13:52:45.849Z,13.90
2022-11-05T13:55:23.663Z,13.90
2022-11-05T13:58:04.422Z,13.90
2022-11-05T14:00:43.298Z,13.90
2022-11-05T14:03:20.277Z,14.00
2022-11-05T14:05:57.835Z,14.00
2022-11-05T14:08:28.510Z,14.00
2022-11-05T14:11:04.969Z,14.00
2022-11-05T14:13:40.365Z,14.00
2022-11-05T14:16:18.274Z,14.00
2022-11-05T14:18:52.832Z,14.00
2022-11-05T14:21:26.093Z,14.00
2022-11-05T14:23:56.174Z,14.00
2022-11-05T14:26:33.179Z,14.00
2022-11-05T14:29:03.563Z,14.00
2022-11-05T14:34:48.872Z,14.00
2022-11-05T14:37:21.191Z,14.00
2022-11-05T14:39:49.446Z,14.00
2022-11-05T14:42:29.784Z,14.00
2022-11-05T14:45:28.562Z,14.00
2022-11-05T14:47:59.466Z,14.00
2022-11-05T14:50:40.648Z,14.00
2022-11-05T14:53:23.658Z,14.00
2022-11-05T14:56:01.014Z,14.00
2022-11-05T14:58:35.363Z,14.00
2022-11-05T15:01:09.584Z,14.00
2022-11-05T15:03:45.510Z,14.00
2022-11-05T15:06:33.706Z,14.00
2022-11-05T15:09:13.374Z,14.10
2022-11-05T15:11:55.042Z,14.00
2022-11-05T15:14:36.421Z,14.10
2022-11-05T15:17:21.934Z,14.10
2022-11-05T15:19:51.165Z,14.00
2022-11-05T15:22:35.578Z,14.10
2022-11-05T15:25:04.904Z,14.00
2022-11-05T15:27:56.995Z,14.10
2022-11-05T15:30:25.279Z,14.10
2022-11-05T15:32:52.910Z,14.10
2022-11-05T15:35:24.769Z,14.10
2022-11-05T15:37:58.777Z,14.10
2022-11-05T15:40:31.459Z,14.10
2022-11-05T15:43:28.773Z,14.20
2022-11-05T15:46:14.056Z,14.20
2022-11-05T15:48:46.991Z,14.20
2022-11-05T15:51:14.456Z,14.20
2022-11-05T15:54:15.800Z,14.20
2022-11-05T15:56:39.616Z,14.20
2022-11-05T15:59:16.277Z,14.20
2022-11-05T16:01:52.623Z,14.20
2022-11-05T16:04:33.104Z,14.20
2022-11-05T16:07:07.328Z,14.20
2022-11-05T16:09:38.550Z,14.20
2022-11-05T16:12:18.192Z,14.20
2022-11-05T16:15:01.056Z,14.20
2022-11-05T16:17:33.004Z,14.20
2022-11-05T16:20:00.829Z,14.20
2022-11-05T16:22:45.718Z,14.20
2022-11-05T16:25:43.182Z,14.20
2022-11-05T16:28:28.610Z,14.20
2022-11-05T16:30:58.810Z,14.20
2022-11-05T16:33:38.353Z,14.20
2022-11-05T16:36:07.600Z,14.20
2022-11-05T16:38:35.340Z,14.20
2022-11-05T16:41:03.166Z,14.20
2022-11-05T16:43:30.821Z,14.10
2022-11-05T16:46:01.169Z,14.20
2022-11-05T16:48:28.628Z,14.20
2022-11-05T16:50:56.242Z,14.20
2022-11-05T16:53:23.765Z,14.20
2022-11-05T16:55:51.176Z,14.20
2022-11-05T16:58:22.527Z,14.20
2022-11-05T17:00:52.588Z,14.20
2022-11-05T17:03:19.989Z,14.20
2022-11-05T17:05:47.939Z,14.20
2022-11-05T17:08:15.726Z,14.20
2022-11-05T17:10:43.551Z,14.20
2022-11-05T17:13:15.683Z,14.20
2022-11-05T17:15:45.645Z,14.20
2022-11-05T17:18:18.560Z,14.20
2022-11-05T17:20:49.745Z,14.20
2022-11-05T17:23:22.356Z,14.20
2022-11-05T17:25:52.808Z,14.20
2022-11-05T17:28:20.857Z,14.20
2022-11-05T17:30:52.745Z,14.20
2022-11-05T17:33:22.810Z,14.20
2022-11-05T17:35:51.119Z,14.20
2022-11-05T17:38:19.173Z,14.30
2022-11-05T17:40:46.959Z,14.20
2022-11-05T17:43:15.668Z,14.30
2022-11-05T17:45:45.563Z,14.30
2022-11-05T17:48:14.209Z,14.30
2022-11-05T17:50:43.300Z,14.20
2022-11-05T17:53:11.967Z,14.30
2022-11-05T17:55:44.754Z,14.20
2022-11-05T17:58:12.794Z,14.30
2022-11-05T18:00:41.069Z,14.30
2022-11-05T18:03:09.818Z,14.30
2022-11-05T18:05:38.282Z,14.30
2022-11-05T18:08:05.898Z,14.30
2022-11-05T18:10:35.755Z,14.30
2022-11-05T18:13:03.237Z,14.30
2022-11-05T18:15:30.761Z,14.30
2022-11-05T18:17:58.245Z,14.30
2022-11-05T18:20:25.705Z,14.30
2022-11-05T18:22:53.313Z,14.30
2022-11-05T18:25:20.907Z,14.30
2022-11-05T18:27:48.376Z,14.30
2022-11-05T18:30:16.081Z,14.40
2022-11-05T18:32:44.250Z,14.30
2022-11-05T18:35:13.370Z,14.40
2022-11-05T18:37:41.019Z,14.40
2022-11-05T18:40:09.450Z,14.40
2022-11-05T18:42:37.436Z,14.40
2022-11-05T18:45:06.636Z,14.40
2022-11-05T18:47:34.594Z,14.40
2022-11-05T18:50:02.839Z,14.40
2022-11-05T18:52:32.026Z,14.40
2022-11-05T18:54:59.671Z,14.50
2022-11-05T18:57:27.675Z,14.50
2022-11-05T18:59:55.118Z,14.40
2022-11-05T19:02:22.884Z,14.50
2022-11-05T19:05:14.488Z,14.50
2022-11-05T19:07:40.243Z,14.50
2022-11-05T19:10:08.650Z,14.50
2022-11-05T19:12:36.147Z,14.50
2022-11-05T19:15:04.037Z,14.50
2022-11-05T19:17:33.356Z,14.50
2022-11-05T19:20:01.044Z,14.50
2022-11-05T19:22:28.749Z,14.60
2022-11-05T19:24:56.228Z,14.60
2022-11-05T19:27:23.763Z,14.60
2022-11-05T19:29:51.326Z,14.60
2022-11-05T19:32:18.903Z,14.60
2022-11-05T19:34:46.778Z,14.60
2022-11-05T19:37:14.453Z,14.60
2022-11-05T19:39:42.033Z,14.60
2022-11-05T19:42:09.494Z,14.60
2022-11-05T19:44:37.074Z,14.60
2022-11-05T19:47:04.626Z,14.60
2022-11-05T19:49:32.230Z,14.60
2022-11-05T19:51:59.728Z,14.60
2022-11-05T19:54:27.264Z,14.70
2022-11-05T19:56:54.826Z,14.70
2022-11-05T19:59:22.242Z,14.70
2022-11-05T20:01:49.803Z,14.70
2022-11-05T20:04:17.430Z,14.70
2022-11-05T20:06:45.099Z,14.70
2022-11-05T20:09:21.754Z,14.70
2022-11-05T20:11:54.731Z,14.70
2022-11-05T20:14:23.700Z,14.70
2022-11-05T20:16:51.729Z,14.70
2022-11-05T20:19:21.207Z,14.70
2022-11-05T20:21:49.130Z,14.70
2022-11-05T20:24:23.698Z,14.80
2022-11-05T20:26:54.047Z,14.70
2022-11-05T20:29:22.659Z,14.70
2022-11-05T20:31:50.604Z,14.80
2022-11-05T20:34:18.184Z,14.80
2022-11-05T20:36:45.886Z,14.80
2022-11-05T20:39:13.579Z,14.80
2022-11-05T20:41:41.195Z,14.80
2022-11-05T20:44:08.789Z,14.80
2022-11-05T20:46:36.344Z,14.80
2022-11-05T20:49:03.789Z,14.90
2022-11-05T20:51:31.257Z,14.80
2022-11-05T20:54:00.426Z,14.80
2022-11-05T20:56:30.679Z,14.90
2022-11-05T20:58:59.564Z,14.90
2022-11-05T21:01:32.211Z,14.90
2022-11-05T21:04:00.419Z,14.90
2022-11-05T21:06:27.938Z,14.90
2022-11-05T21:08:55.451Z,14.80
2022-11-05T21:11:23.407Z,14.90
2022-11-05T21:13:50.908Z,14.90
2022-11-05T21:16:20.479Z,14.90
2022-11-05T21:18:47.977Z,14.90
2022-11-05T21:21:18.284Z,14.90
2022-11-05T21:23:46.227Z,14.90
2022-11-05T21:26:15.344Z,15.00
2022-11-05T21:28:43.159Z,14.90
2022-11-05T21:31:10.908Z,15.00
2022-11-05T21:33:38.485Z,15.00
2022-11-05T21:36:09.352Z,15.00
2022-11-05T21:38:37.366Z,15.00
2022-11-05T21:41:05.525Z,15.00
2022-11-05T21:43:33.269Z,15.00
2022-11-05T21:46:02.395Z,15.00
2022-11-05T21:48:30.369Z,15.00
2022-11-05T21:51:16.382Z,15.00
2022-11-05T21:54:02.513Z,15.00
2022-11-05T21:56:49.028Z,15.00
2022-11-05T21:59:38.879Z,15.10
2022-11-05T22:02:08.649Z,15.10
2022-11-05T22:04:38.851Z,15.10
2022-11-05T22:07:08.020Z,15.10
2022-11-05T22:09:35.778Z,15.20
2022-11-05T22:12:03.590Z,15.20
2022-11-05T22:14:31.476Z,15.20
2022-11-05T22:16:59.291Z,15.20
2022-11-05T22:19:27.537Z,15.20
2022-11-05T22:21:55.009Z,15.20
2022-11-05T22:24:22.908Z,15.20
2022-11-05T22:26:50.832Z,15.20
2022-11-05T22:29:18.416Z,15.20
2022-11-05T22:31:45.847Z,15.20
2022-11-05T22:34:13.411Z,15.30
2022-11-05T22:36:41.066Z,15.30
2022-11-05T22:39:09.591Z,15.30
2022-11-05T22:41:37.306Z,15.30
2022-11-05T22:44:05.012Z,15.30
2022-11-05T22:46:32.460Z,15.30
2022-11-05T22:49:00.369Z,15.30
2022-11-05T22:51:30.616Z,15.30
2022-11-05T22:53:59.139Z,15.30
2022-11-05T22:56:29.156Z,15.40
2022-11-05T22:58:57.152Z,15.30
2022-11-05T23:01:25.461Z,15.30
2022-11-05T23:03:55.009Z,15.30
2022-11-05T23:06:52.222Z,15.40
2022-11-05T23:09:40.051Z,15.30
2022-11-05T23:12:18.100Z,15.30
2022-11-05T23:14:45.906Z,15.30
2022-11-05T23:17:32.113Z,15.30
2022-11-05T23:20:18.196Z,15.30
2022-11-05T23:23:04.114Z,15.30
2022-11-05T23:25:31.559Z,15.30
2022-11-05T23:27:59.112Z,15.30
2022-11-05T23:30:27.170Z,15.30
2022-11-05T23:32:56.609Z,15.30
2022-11-05T23:35:43.040Z,15.30
2022-11-05T23:38:29.113Z,15.30
2022-11-05T23:41:19.689Z,15.30
2022-11-05T23:44:05.642Z,15.30
2022-11-05T23:46:51.651Z,15.30
2022-11-05T23:49:19.489Z,15.30
2022-11-05T23:51:46.999Z,15.40
2022-11-05T23:54:14.515Z,15.30
2022-11-05T23:56:42.017Z,15.30
2022-11-05T23:59:09.555Z,15.30
